Time;durP1;ratioP1;P1;durP2;ratioP2;P2;SDS_P1;SDS_P2;PMS_P1;PMS_P2;Temp;Humidity;BMP_temperature;BMP_pressure;BME280_temperature;BME280_humidity;BME280_pressure;Samples;Min_cycle;Max_cycle;Signal;HPM_P1;HPM_P2
2023/06/23 00:01:21;;;;;;;4.80;4.35;;;24.40;66.40;;;;;;5008084;27;87095;-90
2023/06/23 00:03:47;;;;;;;4.60;4.20;;;24.40;66.30;;;;;;4989019;28;89666;-90
2023/06/23 00:06:14;;;;;;;5.00;4.55;;;24.40;66.30;;;;;;5007777;28;88856;-90
2023/06/23 00:08:40;;;;;;;5.28;4.63;;;24.40;66.60;;;;;;4979811;28;90165;-89
2023/06/23 00:11:10;;;;;;;5.13;4.68;;;24.40;66.20;;;;;;5006574;28;87497;-92
2023/06/23 00:13:37;;;;;;;4.28;3.97;;;24.30;66.40;;;;;;5021576;27;89385;-93
2023/06/23 00:16:06;;;;;;;4.80;4.40;;;24.30;66.20;;;;;;5007494;27;87574;-93
2023/06/23 00:18:36;;;;;;;5.10;4.60;;;24.40;66.40;;;;;;5006636;27;88250;-92
2023/06/23 00:21:10;;;;;;;4.75;4.28;;;24.40;66.40;;;;;;4989796;28;86946;-88
2023/06/23 00:23:37;;;;;;;4.93;4.43;;;24.30;66.30;;;;;;5017114;28;90896;-90
2023/06/23 00:26:04;;;;;;;4.78;4.38;;;24.30;66.30;;;;;;5013588;28;87640;-89
2023/06/23 00:28:30;;;;;;;4.63;4.22;;;24.30;66.40;;;;;;5011333;28;88484;-88
2023/06/23 00:30:57;;;;;;;4.72;4.22;;;24.30;66.30;;;;;;5007269;28;89196;-91
2023/06/23 00:33:22;;;;;;;5.03;4.53;;;24.30;66.40;;;;;;5006928;28;87615;-93
2023/06/23 00:35:48;;;;;;;5.15;4.68;;;24.30;66.30;;;;;;5022004;28;88885;-87
2023/06/23 00:38:14;;;;;;;4.85;4.45;;;24.30;66.30;;;;;;5007195;28;87076;-89
2023/06/23 00:40:41;;;;;;;5.07;4.40;;;24.30;66.40;;;;;;4990193;28;88158;-94
2023/06/23 00:43:07;;;;;;;4.95;4.45;;;24.30;66.40;;;;;;4980080;28;90177;-87
2023/06/23 00:45:32;;;;;;;5.85;5.25;;;24.30;66.20;;;;;;4990178;28;91298;-94
2023/06/23 00:48:04;;;;;;;5.20;4.70;;;24.30;66.20;;;;;;5007221;28;88580;-89
2023/06/23 00:50:30;;;;;;;5.25;4.80;;;24.30;66.40;;;;;;4987938;28;87463;-89
2023/06/23 00:52:56;;;;;;;4.60;4.20;;;24.30;66.10;;;;;;5021534;27;88215;-86
2023/06/23 00:55:26;;;;;;;4.82;4.43;;;24.30;67.00;;;;;;4990022;28;92381;-88
2023/06/23 00:57:54;;;;;;;5.32;4.82;;;24.30;65.90;;;;;;4988564;28;89912;-90
2023/06/23 01:00:21;;;;;;;5.78;5.15;;;24.30;66.20;;;;;;5004316;28;87547;-92
2023/06/23 01:02:49;;;;;;;4.70;4.30;;;24.30;66.10;;;;;;5006730;28;87781;-94
2023/06/23 01:05:19;;;;;;;5.15;4.13;;;24.30;66.10;;;;;;5006503;27;87988;-89
2023/06/23 01:08:03;;;;;;;5.85;4.93;;;24.30;66.20;;;;;;5007020;27;88793;-88
2023/06/23 01:10:46;;;;;;;4.43;4.03;;;24.30;66.30;;;;;;5009574;28;87275;-91
2023/06/23 01:13:26;;;;;;;4.70;4.30;;;24.30;66.20;;;;;;4990719;28;86677;-87
2023/06/23 01:16:15;;;;;;;4.85;4.45;;;24.30;66.20;;;;;;5006439;28;90449;-88
2023/06/23 01:18:57;;;;;;;5.38;4.88;;;24.30;66.10;;;;;;5009217;27;88268;-88
2023/06/23 01:22:11;;;;;;;9.60;4.63;;;24.30;66.00;;;;;;4989998;28;89014;-90
2023/06/23 01:24:59;;;;;;;5.35;4.85;;;24.30;66.10;;;;;;4989536;28;87243;-90
2023/06/23 01:27:41;;;;;;;4.57;4.05;;;24.30;66.00;;;;;;5022729;28;89525;-89
2023/06/23 01:30:12;;;;;;;5.03;4.50;;;24.30;65.90;;;;;;5007168;28;89935;-93
2023/06/23 01:32:44;;;;;;;5.47;4.97;;;24.30;65.90;;;;;;5006623;28;87614;-89
2023/06/23 01:35:19;;;;;;;4.93;4.43;;;24.30;66.10;;;;;;5011089;28;89515;-92
2023/06/23 01:37:47;;;;;;;5.00;4.50;;;24.30;66.10;;;;;;5011854;27;88844;-89
2023/06/23 01:40:15;;;;;;;5.38;4.70;;;24.30;66.10;;;;;;5013654;27;88280;-93
2023/06/23 01:42:54;;;;;;;5.00;4.50;;;24.30;65.90;;;;;;5003627;28;87360;-93
2023/06/23 01:45:23;;;;;;;5.10;4.70;;;24.30;66.10;;;;;;5027992;28;90026;-92
2023/06/23 01:47:50;;;;;;;4.90;4.50;;;24.20;66.00;;;;;;4987608;28;91681;-91
2023/06/23 01:50:18;;;;;;;5.20;4.70;;;24.20;66.00;;;;;;5014051;28;89351;-93
2023/06/23 01:52:45;;;;;;;4.68;4.28;;;24.20;66.10;;;;;;5012578;27;87478;-94
2023/06/23 01:55:12;;;;;;;4.80;4.40;;;24.20;66.10;;;;;;5009910;28;87467;-92
2023/06/23 01:57:39;;;;;;;4.72;4.32;;;24.20;65.90;;;;;;5003840;27;90739;-93
2023/06/23 02:00:13;;;;;;;5.43;4.93;;;24.20;65.90;;;;;;5005905;28;89547;-89
2023/06/23 02:02:40;;;;;;;4.97;4.57;;;24.20;65.80;;;;;;4990245;28;87143;-94
2023/06/23 02:05:08;;;;;;;5.00;4.50;;;24.20;65.70;;;;;;4989345;28;89489;-91
2023/06/23 02:07:35;;;;;;;5.35;4.82;;;24.20;65.90;;;;;;5006353;27;87998;-90
2023/06/23 02:10:02;;;;;;;5.35;4.85;;;24.20;65.70;;;;;;5007139;28;88198;-94
2023/06/23 02:12:29;;;;;;;5.22;4.72;;;24.20;66.10;;;;;;5008653;27;88165;-91
2023/06/23 02:14:54;;;;;;;5.15;4.60;;;24.20;65.90;;;;;;4990685;28;89700;-94
2023/06/23 02:17:21;;;;;;;4.93;4.43;;;24.20;65.90;;;;;;5009222;28;89009;-94
2023/06/23 02:19:49;;;;;;;4.80;4.35;;;24.20;65.70;;;;;;5010194;27;88979;-91
2023/06/23 02:22:19;;;;;;;5.13;4.63;;;24.20;65.90;;;;;;4983517;28;87459;-92
2023/06/23 02:24:46;;;;;;;5.53;5.03;;;24.20;66.00;;;;;;5008726;28;86966;-91
2023/06/23 02:27:12;;;;;;;4.57;4.18;;;24.20;65.80;;;;;;5022071;28;89297;-91
2023/06/23 02:29:40;;;;;;;5.45;4.85;;;24.20;65.90;;;;;;5008467;28;87872;-93
2023/06/23 02:32:07;;;;;;;5.13;4.63;;;24.10;65.80;;;;;;5005748;28;87659;-91
2023/06/23 02:34:35;;;;;;;5.25;4.80;;;24.20;65.90;;;;;;4989170;28;90237;-94
2023/06/23 02:37:05;;;;;;;5.10;4.70;;;24.20;65.80;;;;;;5023321;27;90046;-93
2023/06/23 02:39:38;;;;;;;4.70;4.30;;;24.20;65.80;;;;;;5007001;28;90460;-90
2023/06/23 02:42:05;;;;;;;5.07;4.57;;;24.10;65.70;;;;;;5010019;28;87659;-90
2023/06/23 02:44:48;;;;;;;4.65;4.15;;;24.10;65.80;;;;;;5009869;27;87675;-93
2023/06/23 02:47:18;;;;;;;5.30;4.80;;;24.10;65.80;;;;;;5024927;27;90494;-94
2023/06/23 02:49:46;;;;;;;4.93;4.53;;;24.10;65.70;;;;;;5012329;28;88284;-95
2023/06/23 02:52:15;;;;;;;4.68;4.28;;;24.20;65.90;;;;;;5029233;27;87552;-94
2023/06/23 02:54:44;;;;;;;4.90;4.43;;;24.10;65.80;;;;;;4992372;28;88789;-94
2023/06/23 02:57:12;;;;;;;;;;;24.10;65.80;;;;;;5010901;28;87290;-94
2023/06/23 02:59:41;;;;;;;5.40;4.90;;;24.10;65.50;;;;;;5008482;28;93716;-93
2023/06/23 03:02:08;;;;;;;;;;;24.10;65.70;;;;;;5027063;27;88897;-91
2023/06/23 03:04:34;;;;;;;4.60;4.20;;;24.10;65.60;;;;;;5014941;27;87459;-92
2023/06/23 03:07:03;;;;;;;5.00;4.60;;;24.10;65.70;;;;;;5012963;27;87006;-91
2023/06/23 03:09:29;;;;;;;5.00;4.50;;;24.00;65.60;;;;;;4992199;28;89272;-93
2023/06/23 03:11:55;;;;;;;4.97;4.53;;;24.10;65.80;;;;;;4992655;28;87772;-95
2023/06/23 03:14:20;;;;;;;5.05;4.63;;;24.10;65.70;;;;;;5011591;28;87564;-91
2023/06/23 03:16:51;;;;;;;4.93;4.53;;;24.10;65.70;;;;;;5013294;28;88105;-92
2023/06/23 03:19:31;;;;;;;4.97;4.53;;;24.10;65.60;;;;;;5012412;27;87337;-91
2023/06/23 03:22:03;;;;;;;4.70;4.30;;;24.10;65.60;;;;;;5010273;28;87314;-94
2023/06/23 03:24:31;;;;;;;5.22;4.72;;;24.10;65.70;;;;;;5025010;27;89321;-91
2023/06/23 03:26:58;;;;;;;5.32;4.82;;;24.10;65.70;;;;;;5010006;28;88714;-90
2023/06/23 03:29:29;;;;;;;4.72;4.32;;;24.00;65.70;;;;;;5012955;28;87547;-89
2023/06/23 03:32:01;;;;;;;5.05;4.55;;;24.10;65.80;;;;;;5012141;28;87654;-92
2023/06/23 03:34:39;;;;;;;5.10;4.60;;;24.00;65.60;;;;;;4991551;28;89765;-95
2023/06/23 03:37:07;;;;;;;4.72;4.32;;;24.00;65.60;;;;;;4990530;28;90194;-94
2023/06/23 03:39:38;;;;;;;4.87;4.37;;;24.00;65.60;;;;;;5010246;28;87799;-93
2023/06/23 03:42:05;;;;;;;4.95;4.55;;;24.00;65.70;;;;;;5010873;28;87369;-92
2023/06/23 03:44:38;;;;;;;5.07;4.57;;;24.00;65.70;;;;;;5010327;28;87028;-92
2023/06/23 03:47:11;;;;;;;4.85;4.40;;;24.00;65.70;;;;;;5023932;28;90209;-90
2023/06/23 03:49:51;;;;;;;5.22;4.75;;;24.00;65.70;;;;;;5009887;28;87289;-88
2023/06/23 03:52:18;;;;;;;4.68;4.28;;;24.00;65.50;;;;;;5008004;27;88307;-93
2023/06/23 03:54:48;;;;;;;5.22;4.72;;;24.00;65.50;;;;;;4991773;28;87995;-94
2023/06/23 03:57:22;;;;;;;5.13;4.47;;;24.00;65.60;;;;;;5009635;28;88415;-93
2023/06/23 03:59:50;;;;;;;4.68;4.28;;;24.00;65.40;;;;;;5012160;28;87384;-93
2023/06/23 04:02:20;;;;;;;4.33;4.03;;;24.00;65.50;;;;;;5017385;28;87009;-91
2023/06/23 04:04:48;;;;;;;4.38;3.97;;;24.00;65.40;;;;;;5025029;27;92330;-92
2023/06/23 04:07:14;;;;;;;4.47;3.92;;;24.00;65.40;;;;;;5008771;27;88464;-95
2023/06/23 04:09:43;;;;;;;4.30;3.90;;;24.00;65.60;;;;;;5006166;28;89923;-92
2023/06/23 04:12:11;;;;;;;;;;;24.00;65.50;;;;;;4992440;28;87035;-94
2023/06/23 04:14:39;;;;;;;4.60;4.20;;;24.00;65.50;;;;;;5010719;28;90808;-94
2023/06/23 04:17:08;;;;;;;4.53;4.13;;;24.00;65.40;;;;;;4997852;28;92263;-93
2023/06/23 04:19:37;;;;;;;4.53;4.13;;;24.00;65.50;;;;;;5009058;28;87198;-94
2023/06/23 04:22:05;;;;;;;4.70;4.30;;;24.00;65.50;;;;;;5009550;28;87529;-93
2023/06/23 04:24:33;;;;;;;4.50;4.15;;;24.00;65.40;;;;;;4991371;28;89275;-94
2023/06/23 04:27:01;;;;;;;4.47;3.95;;;24.00;65.40;;;;;;5009938;28;87859;-92
2023/06/23 04:29:28;;;;;;;4.75;4.20;;;24.00;65.20;;;;;;5009043;27;87393;-93
2023/06/23 04:31:55;;;;;;;4.50;4.10;;;24.00;65.10;;;;;;4991125;28;87521;-93
2023/06/23 04:34:21;;;;;;;3.97;3.67;;;24.00;65.10;;;;;;5026537;27;89493;-91
2023/06/23 04:37:18;;;;;;;4.32;3.92;;;24.10;65.00;;;;;;5009051;28;90577;-91
2023/06/23 04:40:09;;;;;;;4.20;3.80;;;24.10;64.70;;;;;;5010478;28;87485;-90
2023/06/23 04:42:47;;;;;;;4.13;3.72;;;24.10;64.60;;;;;;5002037;27;88425;-93
2023/06/23 04:45:16;;;;;;;4.53;4.13;;;24.20;64.60;;;;;;5013363;28;88002;-91
2023/06/23 04:47:48;;;;;;;4.28;3.88;;;24.10;64.50;;;;;;4996093;28;90906;-89
2023/06/23 04:50:15;;;;;;;4.72;4.07;;;24.20;64.30;;;;;;4994416;28;89402;-93
2023/06/23 04:52:46;;;;;;;4.90;4.40;;;24.20;64.30;;;;;;5016232;28;87837;-94
2023/06/23 04:55:14;;;;;;;4.20;3.80;;;24.30;64.30;;;;;;5029653;27;88501;-95
2023/06/23 04:57:44;;;;;;;4.05;3.65;;;24.30;64.20;;;;;;5029330;27;89863;-94
2023/06/23 05:00:15;;;;;;;3.80;3.50;;;24.30;64.10;;;;;;5015622;28;87275;-94
2023/06/23 05:02:42;;;;;;;4.15;3.72;;;24.30;64.00;;;;;;5031590;28;87564;-93
2023/06/23 05:05:15;;;;;;;4.35;3.95;;;24.30;64.20;;;;;;4996539;28;87950;-93
2023/06/23 05:07:41;;;;;;;4.60;3.75;;;24.30;63.80;;;;;;4997979;28;91167;-92
2023/06/23 05:10:08;;;;;;;4.47;4.07;;;24.30;63.80;;;;;;5017033;27;91019;-92
2023/06/23 05:12:37;;;;;;;3.83;3.53;;;24.40;63.70;;;;;;5013089;27;87785;-90
2023/06/23 05:15:04;;;;;;;3.90;3.53;;;24.40;63.80;;;;;;5016016;28;87795;-92
2023/06/23 05:17:33;;;;;;;4.40;4.00;;;24.40;63.80;;;;;;5014447;27;87790;-90
2023/06/23 05:20:01;;;;;;;4.20;3.80;;;24.40;63.80;;;;;;5012043;28;87890;-94
2023/06/23 05:22:28;;;;;;;4.57;3.72;;;24.50;63.70;;;;;;5012882;28;87549;-91
2023/06/23 05:25:00;;;;;;;3.85;3.55;;;24.40;63.50;;;;;;5027040;28;88596;-94
2023/06/23 05:27:28;;;;;;;4.35;3.95;;;24.50;63.50;;;;;;5013265;28;87928;-92
2023/06/23 05:29:57;;;;;;;3.87;3.57;;;24.50;63.40;;;;;;5011922;28;89116;-93
2023/06/23 05:32:26;;;;;;;4.25;3.85;;;24.60;63.50;;;;;;5014011;27;88803;-92
2023/06/23 05:34:55;;;;;;;4.32;3.92;;;24.60;63.30;;;;;;5012159;28;89402;-91
2023/06/23 05:37:23;;;;;;;4.03;3.70;;;24.60;63.20;;;;;;5013996;28;87664;-87
2023/06/23 05:39:49;;;;;;;4.40;4.00;;;24.60;63.20;;;;;;5013242;28;87397;-94
2023/06/23 05:42:15;;;;;;;3.85;3.55;;;24.70;63.30;;;;;;5013367;27;88079;-94
2023/06/23 05:44:41;;;;;;;4.22;3.83;;;24.70;63.10;;;;;;5012065;28;87329;-92
2023/06/23 05:47:12;;;;;;;4.28;3.83;;;24.70;63.00;;;;;;5007936;28;88245;-93
2023/06/23 05:49:41;;;;;;;4.45;4.05;;;24.70;63.00;;;;;;5013189;27;87457;-95
2023/06/23 05:52:11;;;;;;;4.05;3.65;;;24.80;63.00;;;;;;5010800;27;88494;-92
2023/06/23 05:54:40;;;;;;;4.07;3.75;;;24.80;62.80;;;;;;5008267;27;87071;-90
2023/06/23 05:57:16;;;;;;;4.07;3.67;;;24.80;62.90;;;;;;4992425;28;90800;-92
2023/06/23 05:59:45;;;;;;;3.95;3.40;;;24.90;62.60;;;;;;5010478;28;92926;-92
2023/06/23 06:02:20;;;;;;;3.83;3.53;;;24.90;62.60;;;;;;5013380;28;88146;-89
2023/06/23 06:04:50;;;;;;;3.75;3.45;;;24.90;62.60;;;;;;4998914;28;89265;-91
2023/06/23 06:07:18;;;;;;;4.22;3.83;;;24.90;62.40;;;;;;4989253;28;89276;-88
2023/06/23 06:09:45;;;;;;;3.88;3.58;;;25.00;62.60;;;;;;5012857;28;87496;-90
2023/06/23 06:12:13;;;;;;;4.18;3.88;;;25.00;62.40;;;;;;4993652;28;86940;-89
2023/06/23 06:14:41;;;;;;;4.20;3.80;;;25.00;62.20;;;;;;4994420;28;89918;-94
2023/06/23 06:17:08;;;;;;;8.27;5.73;;;25.00;62.00;;;;;;4987762;28;90558;-94
2023/06/23 06:19:35;;;;;;;4.47;4.07;;;24.90;61.10;;;;;;5020683;27;88947;-93
2023/06/23 06:22:03;;;;;;;10.93;6.75;;;24.80;61.50;;;;;;5013760;28;88418;-92
2023/06/23 06:24:30;;;;;;;9.63;7.07;;;24.70;60.70;;;;;;5009521;28;88137;-89
2023/06/23 06:26:59;;;;;;;8.13;6.80;;;24.70;60.70;;;;;;4993228;28;89833;-91
2023/06/23 06:29:27;;;;;;;22.50;10.15;;;24.60;60.90;;;;;;4997681;28;89942;-92
2023/06/23 06:31:56;;;;;;;23.92;10.18;;;24.60;60.40;;;;;;5013693;27;87339;-93
2023/06/23 06:34:24;;;;;;;21.23;11.00;;;24.60;60.10;;;;;;5011588;27;87921;-93
2023/06/23 06:36:51;;;;;;;22.10;10.55;;;24.60;59.50;;;;;;4991403;28;88944;-90
2023/06/23 06:39:18;;;;;;;18.77;9.90;;;24.50;59.60;;;;;;5011980;28;87578;-92
2023/06/23 06:41:45;;;;;;;21.67;11.13;;;24.50;59.50;;;;;;5015181;28;88909;-94
2023/06/23 06:44:10;;;;;;;19.25;10.02;;;24.40;59.10;;;;;;4997162;28;89849;-93
2023/06/23 06:46:39;;;;;;;19.48;10.90;;;24.40;59.40;;;;;;5012917;28;88754;-93
2023/06/23 06:49:06;;;;;;;19.20;10.50;;;24.40;59.30;;;;;;4997840;28;91695;-93
2023/06/23 06:51:32;;;;;;;18.08;10.38;;;24.40;59.40;;;;;;5002879;28;87756;-90
2023/06/23 06:53:58;;;;;;;15.77;10.52;;;24.30;59.20;;;;;;4995048;28;90277;-89
2023/06/23 06:56:24;;;;;;;18.63;11.02;;;24.30;59.60;;;;;;5012195;28;87762;-92
2023/06/23 06:58:51;;;;;;;16.23;11.07;;;24.30;59.60;;;;;;4999992;28;89697;-93
2023/06/23 07:01:17;;;;;;;15.02;10.10;;;24.30;59.20;;;;;;5012658;28;88119;-89
2023/06/23 07:03:44;;;;;;;17.83;10.23;;;24.30;59.20;;;;;;5030688;27;89865;-90
2023/06/23 07:06:10;;;;;;;17.23;10.07;;;24.30;59.20;;;;;;5005821;28;89360;-89
2023/06/23 07:08:36;;;;;;;14.30;10.20;;;24.30;59.60;;;;;;5033141;27;94619;-89
2023/06/23 07:11:02;;;;;;;14.15;9.98;;;24.30;59.70;;;;;;5000313;28;88229;-94
2023/06/23 07:13:27;;;;;;;18.63;10.55;;;24.30;59.90;;;;;;4998648;28;88819;-90
2023/06/23 07:15:53;;;;;;;17.63;9.82;;;24.30;59.80;;;;;;4998270;28;90567;-92
2023/06/23 07:18:19;;;;;;;18.60;9.55;;;24.30;59.80;;;;;;5019457;28;87028;-92
2023/06/23 07:20:44;;;;;;;13.40;8.48;;;24.30;59.70;;;;;;4997428;28;87315;-92
2023/06/23 07:23:10;;;;;;;15.88;9.50;;;24.30;60.00;;;;;;4999746;28;88143;-91
2023/06/23 07:25:35;;;;;;;15.63;8.90;;;24.30;59.80;;;;;;5015997;28;87898;-88
2023/06/23 07:28:01;;;;;;;12.25;9.48;;;24.30;59.90;;;;;;5017258;27;87511;-93
2023/06/23 07:30:27;;;;;;;13.02;8.63;;;24.30;59.80;;;;;;5029824;28;87595;-91
2023/06/23 07:32:53;;;;;;;15.10;9.98;;;24.30;59.80;;;;;;4998733;28;88283;-92
2023/06/23 07:35:19;;;;;;;10.43;8.10;;;24.30;59.70;;;;;;5018318;27;89019;-91
2023/06/23 07:37:45;;;;;;;11.98;8.32;;;24.30;59.70;;;;;;5020334;27;88402;-93
2023/06/23 07:40:11;;;;;;;13.68;7.95;;;24.30;59.70;;;;;;5021144;28;87895;-90
2023/06/23 07:42:37;;;;;;;11.88;7.25;;;24.30;59.70;;;;;;5016200;28;88113;-92
2023/06/23 07:45:03;;;;;;;12.88;7.60;;;24.30;59.80;;;;;;5016632;28;88139;-94
2023/06/23 07:47:29;;;;;;;12.63;8.18;;;24.30;59.70;;;;;;5028806;27;89721;-94
2023/06/23 07:49:55;;;;;;;13.70;7.90;;;24.30;59.60;;;;;;5015391;27;87668;-94
2023/06/23 07:52:21;;;;;;;14.48;7.13;;;24.30;59.60;;;;;;5018050;28;87147;-91
2023/06/23 07:54:47;;;;;;;16.20;8.13;;;24.30;59.60;;;;;;5019403;28;87938;-88
2023/06/23 07:57:13;;;;;;;13.20;7.75;;;24.30;59.60;;;;;;5000582;27;89369;-94
2023/06/23 07:59:39;;;;;;;11.38;8.05;;;24.30;59.60;;;;;;4999490;28;89080;-91
2023/06/23 08:02:05;;;;;;;13.93;8.40;;;24.30;59.60;;;;;;5002774;28;88884;-92
2023/06/23 08:04:30;;;;;;;11.77;8.85;;;24.30;59.60;;;;;;5035223;27;90420;-90
2023/06/23 08:06:56;;;;;;;17.00;10.50;;;24.30;59.60;;;;;;5001024;28;90369;-94
2023/06/23 08:09:21;;;;;;;19.42;10.45;;;24.30;59.70;;;;;;5016005;28;87426;-94
2023/06/23 08:11:47;;;;;;;17.35;9.82;;;24.30;59.60;;;;;;4999394;28;88768;-92
2023/06/23 08:14:13;;;;;;;15.20;10.05;;;24.30;59.60;;;;;;5019756;28;87609;-93
2023/06/23 08:16:39;;;;;;;14.13;9.00;;;24.30;59.40;;;;;;4997466;28;89982;-91
2023/06/23 08:19:04;;;;;;;15.52;10.00;;;24.30;59.50;;;;;;4996548;28;87070;-93
2023/06/23 08:21:35;;;;;;;18.88;9.20;;;24.30;59.30;;;;;;4996094;28;89517;-91
2023/06/23 08:24:01;;;;;;;17.10;10.02;;;24.30;59.50;;;;;;5018275;28;89496;-93
2023/06/23 08:26:27;;;;;;;17.30;10.02;;;24.30;59.50;;;;;;5017554;27;87657;-93
2023/06/23 08:28:52;;;;;;;18.88;9.95;;;24.30;59.50;;;;;;4995366;28;87201;-94
2023/06/23 08:31:18;;;;;;;17.17;9.27;;;24.30;59.60;;;;;;4993569;28;89426;-94
2023/06/23 08:33:44;;;;;;;13.88;8.95;;;24.30;59.40;;;;;;4993635;28;90375;-94
2023/06/23 08:36:10;;;;;;;16.50;9.95;;;24.30;59.40;;;;;;5011842;28;90207;-94
2023/06/23 08:38:53;;;;;;;14.90;9.27;;;24.30;59.60;;;;;;5009875;28;87883;-92
2023/06/23 08:41:24;;;;;;;13.38;9.38;;;24.30;59.50;;;;;;5009151;27;89651;-94
2023/06/23 08:43:53;;;;;;;15.27;9.95;;;24.20;59.30;;;;;;4990325;28;90489;-89
2023/06/23 08:46:19;;;;;;;15.95;9.82;;;24.20;59.30;;;;;;4988363;28;90302;-91
2023/06/23 08:48:51;;;;;;;14.40;9.00;;;24.20;59.20;;;;;;5009934;28;88949;-92
2023/06/23 08:51:17;;;;;;;14.93;9.27;;;24.20;59.50;;;;;;5010598;27;87435;-93
2023/06/23 08:53:44;;;;;;;13.63;9.77;;;24.20;59.80;;;;;;5013092;28;88862;-92
2023/06/23 08:56:10;;;;;;;13.25;10.10;;;24.20;59.80;;;;;;5023820;27;89554;-91
2023/06/23 08:58:35;;;;;;;12.23;9.07;;;24.20;60.00;;;;;;5006549;28;87983;-87
2023/06/23 09:01:01;;;;;;;14.23;8.93;;;24.20;60.00;;;;;;4993745;28;89829;-93
2023/06/23 09:03:28;;;;;;;14.00;9.43;;;24.30;60.20;;;;;;5028525;28;88900;-92
2023/06/23 09:05:53;;;;;;;10.35;7.47;;;24.30;60.30;;;;;;4997938;28;89108;-91
2023/06/23 09:08:20;;;;;;;12.00;8.85;;;24.30;60.10;;;;;;5016299;28;87519;-92
2023/06/23 09:10:45;;;;;;;11.70;9.02;;;24.20;59.80;;;;;;5007229;28;88624;-93
2023/06/23 09:13:24;;;;;;;11.85;8.18;;;24.20;59.90;;;;;;5025476;27;91072;-93
2023/06/23 09:15:51;;;;;;;10.77;8.02;;;24.20;60.10;;;;;;4992680;28;90336;-93
2023/06/23 09:18:18;;;;;;;13.57;7.95;;;24.30;60.20;;;;;;4991317;28;87846;-91
2023/06/23 09:20:53;;;;;;;10.88;7.18;;;24.30;60.20;;;;;;4988859;28;88343;-90
2023/06/23 09:23:23;;;;;;;10.38;6.68;;;24.30;60.10;;;;;;4992925;28;89280;-91
2023/06/23 09:25:54;;;;;;;10.98;6.97;;;24.40;60.00;;;;;;5010810;28;87695;-92
2023/06/23 09:28:36;;;;;;;8.88;5.75;;;24.60;59.80;;;;;;4990322;28;87858;-92
2023/06/23 09:31:12;;;;;;;8.65;6.18;;;24.90;60.90;;;;;;4992821;28;89759;-92
2023/06/23 09:33:52;;;;;;;11.10;6.57;;;24.90;59.60;;;;;;4983772;28;89296;-92
2023/06/23 09:36:23;;;;;;;8.95;5.88;;;24.90;58.80;;;;;;4993959;28;91226;-95
2023/06/23 09:38:52;;;;;;;9.85;5.80;;;24.90;58.80;;;;;;4995156;28;88760;-93
2023/06/23 09:41:18;;;;;;;10.20;5.47;;;24.90;60.20;;;;;;4989480;28;88696;-93
2023/06/23 09:43:50;;;;;;;17.83;7.90;;;24.80;60.10;;;;;;4992367;28;90749;-91
2023/06/23 09:46:18;;;;;;;13.73;7.82;;;24.80;60.10;;;;;;4999126;28;90244;-90
2023/06/23 09:48:45;;;;;;;13.90;6.80;;;24.80;60.20;;;;;;4988734;28;87351;-91
2023/06/23 09:51:12;;;;;;;14.90;6.30;;;24.80;60.60;;;;;;4991047;28;88136;-89
2023/06/23 09:53:39;;;;;;;10.40;5.68;;;24.80;60.80;;;;;;4995526;28;90870;-89
2023/06/23 09:56:07;;;;;;;12.75;6.25;;;24.80;60.50;;;;;;4981179;28;88745;-87
2023/06/23 09:58:38;;;;;;;11.98;5.80;;;24.80;59.30;;;;;;4980860;28;87722;-89
2023/06/23 10:01:07;;;;;;;9.60;5.60;;;24.80;59.60;;;;;;5006256;28;87160;-90
2023/06/23 10:03:46;;;;;;;11.07;5.63;;;24.80;60.10;;;;;;4989347;28;92531;-90
2023/06/23 10:06:32;;;;;;;8.18;5.35;;;24.80;60.00;;;;;;5022611;28;90825;-89
2023/06/23 10:08:59;;;;;;;9.10;5.90;;;24.80;59.20;;;;;;4991932;28;87789;-88
2023/06/23 10:11:36;;;;;;;9.77;5.50;;;24.80;59.10;;;;;;4975905;28;89241;-87
2023/06/23 10:14:05;;;;;;;8.50;5.70;;;24.80;59.00;;;;;;4987783;28;90974;-89
2023/06/23 10:16:35;;;;;;;7.57;5.15;;;24.80;58.30;;;;;;4992715;28;90137;-90
2023/06/23 10:19:00;;;;;;;;;;;24.70;57.70;;;;;;4980590;28;87659;-90
2023/06/23 10:21:30;;;;;;;7.28;5.18;;;24.70;57.60;;;;;;4995775;28;89231;-93
2023/06/23 10:23:59;;;;;;;11.55;4.63;;;24.80;58.00;;;;;;4999799;28;89305;-88
2023/06/23 10:26:45;;;;;;;8.00;5.10;;;24.90;58.30;;;;;;4986336;28;89285;-93
2023/06/23 10:29:15;;;;;;;9.98;7.47;;;25.10;58.00;;;;;;4985355;28;88725;-92
2023/06/23 10:31:41;;;;;;;10.52;5.75;;;25.10;56.80;;;;;;4986859;28;90049;-87
2023/06/23 10:34:12;;;;;;;13.25;5.47;;;25.20;57.20;;;;;;4984313;28;90677;-86
2023/06/23 10:36:40;;;;;;;7.55;5.68;;;25.20;57.30;;;;;;4997512;28;91033;-89
2023/06/23 10:39:10;;;;;;;9.90;5.88;;;25.20;58.30;;;;;;4992025;28;88088;-88
2023/06/23 10:41:42;;;;;;;9.90;5.63;;;25.20;60.00;;;;;;5010498;28;91322;-88
2023/06/23 10:44:08;;;;;;;14.15;5.95;;;25.20;62.20;;;;;;4990678;28;90357;-91
2023/06/23 10:46:35;;;;;;;11.88;7.00;;;25.20;62.70;;;;;;4992307;28;89749;-89
2023/06/23 10:49:04;;;;;;;8.88;7.18;;;25.20;62.80;;;;;;5023602;28;88058;-93
2023/06/23 10:51:31;;;;;;;16.00;7.35;;;25.20;63.60;;;;;;4987321;27;89575;-91
2023/06/23 10:54:00;;;;;;;11.93;7.38;;;25.20;62.40;;;;;;4991313;28;91341;-91
2023/06/23 10:56:32;;;;;;;12.82;6.90;;;25.30;62.50;;;;;;5007987;28;90290;-91
2023/06/23 10:58:58;;;;;;;11.73;7.18;;;25.30;62.70;;;;;;4991930;28;87644;-92
2023/06/23 11:01:26;;;;;;;12.27;8.52;;;25.40;61.80;;;;;;5010756;28;89140;-91
2023/06/23 11:03:53;;;;;;;12.77;8.18;;;25.40;59.80;;;;;;4990918;28;90227;-92
2023/06/23 11:06:37;;;;;;;7.45;6.75;;;25.40;59.30;;;;;;4996642;27;90114;-92
2023/06/23 11:09:02;;;;;;;9.63;7.28;;;25.50;58.90;;;;;;5011955;28;88268;-92
2023/06/23 11:11:34;;;;;;;11.13;7.82;;;25.60;58.70;;;;;;5005257;28;88818;-90
2023/06/23 11:14:00;;;;;;;10.80;7.90;;;25.60;58.00;;;;;;5003927;22;90782;-88
2023/06/23 11:16:34;;;;;;;11.60;9.05;;;25.50;59.00;;;;;;5037961;27;88958;-91
2023/06/23 11:19:02;;;;;;;12.32;8.27;;;25.40;58.10;;;;;;5039614;27;88100;-92
2023/06/23 11:21:35;;;;;;;12.98;8.05;;;25.30;57.50;;;;;;5041003;27;87488;-91
2023/06/23 11:24:20;;;;;;;11.15;7.78;;;25.20;57.10;;;;;;5041604;28;89496;-94
2023/06/23 11:26:49;;;;;;;11.73;9.27;;;25.20;57.10;;;;;;5038844;27;92385;-93
2023/06/23 11:29:21;;;;;;;10.18;7.65;;;25.20;56.50;;;;;;5056057;27;87076;-93
2023/06/23 11:32:14;;;;;;;8.73;7.10;;;25.10;56.50;;;;;;5037479;27;89327;-93
2023/06/23 11:34:49;;;;;;;10.43;8.00;;;25.20;56.80;;;;;;5039434;27;88277;-89
2023/06/23 11:37:15;;;;;;;11.27;7.55;;;25.20;56.70;;;;;;5041155;27;88093;-91
2023/06/23 11:39:41;;;;;;;9.50;6.90;;;25.20;56.10;;;;;;5056053;27;87874;-88
2023/06/23 11:42:07;;;;;;;9.52;7.25;;;25.10;56.60;;;;;;5037916;28;90436;-91
2023/06/23 11:44:32;;;;;;;11.18;6.50;;;25.10;56.50;;;;;;5036135;28;92617;-88
2023/06/23 11:46:58;;;;;;;8.90;6.38;;;25.10;56.10;;;;;;5037766;28;92059;-89
2023/06/23 11:49:24;;;;;;;13.38;7.80;;;25.10;56.00;;;;;;5041113;27;87439;-90
2023/06/23 11:51:50;;;;;;;12.25;6.97;;;25.10;55.40;;;;;;5036564;27;89736;-92
2023/06/23 11:54:16;;;;;;;15.10;7.00;;;25.10;55.40;;;;;;5041681;27;87351;-88
2023/06/23 11:56:42;;;;;;;11.70;6.55;;;25.10;55.90;;;;;;5042438;28;91179;-91
2023/06/23 11:59:10;;;;;;;13.05;6.50;;;25.20;55.50;;;;;;5040848;27;87065;-91
2023/06/23 12:01:37;;;;;;;16.05;7.00;;;25.20;56.40;;;;;;5039554;28;90928;-91
2023/06/23 12:04:05;;;;;;;14.15;6.32;;;25.20;55.50;;;;;;5038740;27;90183;-91
2023/06/23 12:06:35;;;;;;;14.07;6.75;;;25.20;55.80;;;;;;5039966;27;91374;-90
2023/06/23 12:09:02;;;;;;;14.68;7.15;;;25.20;56.00;;;;;;5039874;28;88571;-91
2023/06/23 12:11:29;;;;;;;14.68;6.88;;;25.20;56.20;;;;;;5037611;28;89682;-90
2023/06/23 12:13:57;;;;;;;13.20;6.97;;;25.20;55.90;;;;;;5038744;27;87740;-90
2023/06/23 12:16:22;;;;;;;19.20;6.93;;;25.10;56.10;;;;;;5037822;28;90007;-92
2023/06/23 12:18:51;;;;;;;20.52;7.90;;;25.20;56.60;;;;;;5040965;27;86868;-91
2023/06/23 12:21:17;;;;;;;16.47;7.33;;;25.10;56.60;;;;;;5038109;27;88859;-90
2023/06/23 12:23:44;;;;;;;17.13;6.80;;;25.20;56.50;;;;;;5039343;28;91505;-90
2023/06/23 12:26:09;;;;;;;19.95;6.93;;;25.10;56.60;;;;;;5039644;27;87304;-92
2023/06/23 12:28:35;;;;;;;17.00;6.97;;;25.10;56.40;;;;;;5037894;28;87535;-89
2023/06/23 12:31:03;;;;;;;13.48;6.38;;;25.10;57.20;;;;;;5039532;27;87594;-92
2023/06/23 12:33:29;;;;;;;16.13;6.60;;;25.10;56.40;;;;;;5038254;27;92713;-92
2023/06/23 12:36:03;;;;;;;11.90;6.20;;;25.10;56.60;;;;;;5041283;28;88401;-90
2023/06/23 12:38:31;;;;;;;14.82;6.60;;;25.10;56.70;;;;;;5038713;28;87246;-92
2023/06/23 12:41:27;;;;;;;9.65;5.65;;;25.10;56.60;;;;;;5038458;27;90328;-91
2023/06/23 12:43:54;;;;;;;10.65;5.70;;;25.10;56.60;;;;;;5055297;27;90348;-89
2023/06/23 12:46:25;;;;;;;10.40;5.65;;;25.10;56.60;;;;;;5038421;27;91115;-91
2023/06/23 12:48:51;;;;;;;14.73;6.38;;;25.10;56.50;;;;;;5038151;28;93112;-90
2023/06/23 12:51:17;;;;;;;11.70;5.97;;;25.10;56.60;;;;;;5038079;27;90676;-92
2023/06/23 12:53:43;;;;;;;8.52;5.40;;;25.10;56.70;;;;;;5038218;28;89875;-92